Time;durP1;ratioP1;P1;durP2;ratioP2;P2;SDS_P1;SDS_P2;PMS_P1;PMS_P2;Temp;Humidity;BMP_temperature;BMP_pressure;BME280_temperature;BME280_humidity;BME280_pressure;Samples;Min_cycle;Max_cycle;Signal;HPM_P1;HPM_P2
2023/05/17 00:00:52;;;;;;;;;;;12.30;86.80;;;;;;5046335;28;19921;-70
2023/05/17 00:03:18;;;;;;;;;;;12.30;86.80;;;;;;5045904;28;20374;-70
2023/05/17 00:05:43;;;;;;;;;;;12.30;86.90;;;;;;5046574;28;20293;-69
2023/05/17 00:08:10;;;;;;;;;;;12.30;86.90;;;;;;5046594;28;19913;-70
2023/05/17 00:10:35;;;;;;;;;;;12.30;86.90;;;;;;5046618;28;19977;-69
2023/05/17 00:13:01;;;;;;;;;;;12.30;87.10;;;;;;5045827;28;19913;-70
2023/05/17 00:15:26;;;;;;;;;;;12.20;87.00;;;;;;5046405;28;19920;-69
2023/05/17 00:17:52;;;;;;;;;;;12.20;87.20;;;;;;5042833;28;19981;-70
2023/05/17 00:20:17;;;;;;;;;;;12.20;87.10;;;;;;5046101;28;19950;-70
2023/05/17 00:22:44;;;;;;;;;;;12.20;87.30;;;;;;5045191;28;19917;-70
2023/05/17 00:25:10;;;;;;;;;;;12.20;87.40;;;;;;5045672;28;19934;-69
2023/05/17 00:27:35;;;;;;;;;;;12.10;87.40;;;;;;5045298;28;19912;-70
2023/05/17 00:30:01;;;;;;;;;;;12.10;87.20;;;;;;5044484;28;19913;-69
2023/05/17 00:32:26;;;;;;;;;;;12.10;87.40;;;;;;5045270;28;19965;-70
2023/05/17 00:34:52;;;;;;;;;;;12.10;87.30;;;;;;5045979;28;19916;-70
2023/05/17 00:37:17;;;;;;;;;;;12.10;88.20;;;;;;5046021;28;19909;-70
2023/05/17 00:39:43;;;;;;;;;;;12.10;87.40;;;;;;5044530;28;19909;-69
2023/05/17 00:42:09;;;;;;;;;;;12.10;87.50;;;;;;5032702;28;19921;-70
2023/05/17 00:44:35;;;;;;;;;;;12.00;87.60;;;;;;5045603;28;19915;-70
2023/05/17 00:47:01;;;;;;;;;;;12.00;87.50;;;;;;5045519;28;19913;-69
2023/05/17 00:49:27;;;;;;;;;;;12.00;87.60;;;;;;5020629;28;19913;-69
2023/05/17 00:51:53;;;;;;;;;;;12.00;87.60;;;;;;5025550;28;19920;-70
2023/05/17 00:54:19;;;;;;;;;;;12.00;87.60;;;;;;5025474;28;19921;-70
2023/05/17 00:56:44;;;;;;;;;;;12.00;87.60;;;;;;5033800;28;19919;-69
2023/05/17 00:59:11;;;;;;;;;;;12.00;87.80;;;;;;5027510;28;19983;-69
2023/05/17 01:01:40;;;;;;;;;;;12.00;87.70;;;;;;5028013;28;19919;-69
2023/05/17 01:04:05;;;;;;;;;;;12.00;87.80;;;;;;5045320;28;20365;-70
2023/05/17 01:06:31;;;;;;;;;;;11.90;87.80;;;;;;5045524;28;19913;-70
2023/05/17 01:08:57;;;;;;;;;;;11.90;87.80;;;;;;5045411;28;19919;-69
2023/05/17 01:11:34;;;;;;;;;;;11.90;87.90;;;;;;5045771;28;19945;-70
2023/05/17 01:14:18;;;;;;;;;;;11.90;87.90;;;;;;5045187;28;19913;-70
2023/05/17 01:17:04;;;;;;;;;;;11.90;87.90;;;;;;5042323;28;20053;-70
2023/05/17 01:19:42;;;;;;;;;;;11.90;88.00;;;;;;5027231;28;20045;-70
2023/05/17 01:22:07;;;;;;;;;;;11.90;88.00;;;;;;5044924;28;19922;-70
2023/05/17 01:24:43;;;;;;;;;;;11.80;88.00;;;;;;5045287;28;20361;-69
2023/05/17 01:27:09;;;;;;;;;;;11.80;88.00;;;;;;5045084;28;20352;-70
2023/05/17 01:29:36;;;;;;;;;;;11.80;88.10;;;;;;5045510;28;19968;-69
2023/05/17 01:32:02;;;;;;;;;;;11.80;88.10;;;;;;5044651;28;19952;-69
2023/05/17 01:34:28;;;;;;;;;;;11.80;88.10;;;;;;5045225;28;19995;-69
2023/05/17 01:36:54;;;;;;;;;;;11.80;88.10;;;;;;5027241;28;19913;-69
2023/05/17 01:39:19;;;;;;;;;;;11.80;88.10;;;;;;5044889;28;19909;-69
2023/05/17 01:41:57;;;;;;;;;;;11.70;88.00;;;;;;5044838;28;19909;-69
2023/05/17 01:44:31;;;;;;;;;;;11.70;88.20;;;;;;5044862;28;19921;-69
2023/05/17 01:47:05;;;;;;;;;;;11.70;88.20;;;;;;5045077;28;20008;-69
2023/05/17 01:49:32;;;;;;;;;;;11.70;88.20;;;;;;5035255;28;19917;-70
2023/05/17 01:52:07;;;;;;;;;;;11.70;88.20;;;;;;5025069;28;19924;-70
2023/05/17 01:54:38;;;;;;;;;;;11.70;88.20;;;;;;5024644;28;19909;-70
2023/05/17 01:57:04;;;;;;;;;;;11.70;88.20;;;;;;5036745;28;19909;-69
2023/05/17 01:59:30;;;;;;;;;;;11.70;88.20;;;;;;5044975;28;19909;-70
2023/05/17 02:01:57;;;;;;;;;;;11.70;88.30;;;;;;5029288;28;20010;-69
2023/05/17 02:04:22;;;;;;;;;;;11.60;88.20;;;;;;5042183;28;19995;-69
2023/05/17 02:06:48;;;;;;;;;;;11.60;88.30;;;;;;5048101;28;20008;-70
2023/05/17 02:09:13;;;;;;;;;;;11.60;88.30;;;;;;5047897;28;20006;-69
2023/05/17 02:11:39;;;;;;;;;;;11.60;88.30;;;;;;5029886;28;19913;-69
2023/05/17 02:14:05;;;;;;;;;;;11.60;88.40;;;;;;5047729;28;19949;-69
2023/05/17 02:16:30;;;;;;;;;;;11.60;88.40;;;;;;5047909;28;20332;-70
2023/05/17 02:18:56;;;;;;;;;;;11.60;88.40;;;;;;5042613;28;19919;-69
2023/05/17 02:21:21;;;;;;;;;;;11.60;88.40;;;;;;5039868;28;19973;-69
2023/05/17 02:23:46;;;;;;;;;;;11.60;88.40;;;;;;5047345;28;19964;-70
2023/05/17 02:26:12;;;;;;;;;;;11.50;88.50;;;;;;5047733;28;19913;-69
2023/05/17 02:28:37;;;;;;;;;;;11.50;88.50;;;;;;5047407;28;19935;-69
2023/05/17 02:31:03;;;;;;;;;;;11.50;88.50;;;;;;5047715;28;19918;-70
2023/05/17 02:33:28;;;;;;;;;;;11.50;88.50;;;;;;5047214;28;20015;-69
2023/05/17 02:35:54;;;;;;;;;;;11.50;88.60;;;;;;5047595;28;19948;-69
2023/05/17 02:38:20;;;;;;;;;;;11.50;88.60;;;;;;5047795;28;19917;-69
2023/05/17 02:40:46;;;;;;;;;;;11.50;88.70;;;;;;5047394;28;19916;-69
2023/05/17 02:43:11;;;;;;;;;;;11.50;88.60;;;;;;5047150;28;19974;-70
2023/05/17 02:45:36;;;;;;;;;;;11.50;88.70;;;;;;5047309;28;20353;-69
2023/05/17 02:48:02;;;;;;;;;;;11.40;88.70;;;;;;5046974;28;19913;-70
2023/05/17 02:50:27;;;;;;;;;;;11.40;88.70;;;;;;5029413;28;19936;-70
2023/05/17 02:52:53;;;;;;;;;;;11.40;88.70;;;;;;5027242;28;19999;-69
2023/05/17 02:55:19;;;;;;;;;;;11.40;88.70;;;;;;5043584;28;19913;-70
2023/05/17 02:57:45;;;;;;;;;;;11.40;88.70;;;;;;5047077;28;19966;-69
2023/05/17 03:00:10;;;;;;;;;;;11.40;88.70;;;;;;5047243;28;19920;-69
2023/05/17 03:02:36;;;;;;;;;;;11.40;88.80;;;;;;5046927;28;19952;-69
2023/05/17 03:05:01;;;;;;;;;;;11.40;88.70;;;;;;5047236;28;19927;-69
2023/05/17 03:07:27;;;;;;;;;;;11.40;88.70;;;;;;5046936;28;19917;-69
2023/05/17 03:09:52;;;;;;;;;;;11.40;88.70;;;;;;5047100;28;19962;-70
2023/05/17 03:12:18;;;;;;;;;;;11.40;88.80;;;;;;5046676;28;19912;-69
2023/05/17 03:14:43;;;;;;;;;;;11.40;88.90;;;;;;5046970;28;19985;-69
2023/05/17 03:17:09;;;;;;;;;;;11.40;88.90;;;;;;5046921;28;20522;-70
2023/05/17 03:19:34;;;;;;;;;;;11.30;88.90;;;;;;5036794;28;19913;-69
2023/05/17 03:22:00;;;;;;;;;;;11.30;88.90;;;;;;5026507;28;20362;-69
2023/05/17 03:24:25;;;;;;;;;;;11.30;88.90;;;;;;5026789;28;19945;-69
2023/05/17 03:26:51;;;;;;;;;;;11.30;88.90;;;;;;5035507;28;19913;-69
2023/05/17 03:29:16;;;;;;;;;;;11.40;88.90;;;;;;5028767;28;19939;-69
2023/05/17 03:31:42;;;;;;;;;;;11.30;88.90;;;;;;5046467;28;19912;-69
2023/05/17 03:34:07;;;;;;;;;;;11.30;89.00;;;;;;5046332;28;19938;-70
2023/05/17 03:36:33;;;;;;;;;;;11.30;88.90;;;;;;5045809;28;20347;-70
2023/05/17 03:38:58;;;;;;;;;;;11.30;88.90;;;;;;5045843;28;19917;-70
2023/05/17 03:41:24;;;;;;;;;;;11.30;89.00;;;;;;5045702;28;19913;-69
2023/05/17 03:43:50;;;;;;;;;;;11.20;89.10;;;;;;5046042;28;19916;-69
2023/05/17 03:46:15;;;;;;;;;;;11.20;89.10;;;;;;5046368;28;20007;-69
2023/05/17 03:48:41;;;;;;;;;;;11.20;89.20;;;;;;5043356;28;19913;-69
2023/05/17 03:51:06;;;;;;;;;;;11.20;89.20;;;;;;5026527;28;19913;-70
2023/05/17 03:53:32;;;;;;;;;;;11.20;89.30;;;;;;5028012;28;20443;-69
2023/05/17 03:55:57;;;;;;;;;;;11.20;89.40;;;;;;5046072;28;19909;-70
2023/05/17 03:58:23;;;;;;;;;;;11.20;89.40;;;;;;5046241;28;20685;-70
2023/05/17 04:00:48;;;;;;;;;;;11.20;89.40;;;;;;5046459;28;19917;-70
2023/05/17 04:03:14;;;;;;;;;;;11.20;89.40;;;;;;5045860;28;19963;-70
2023/05/17 04:05:40;;;;;;;;;;;11.20;89.00;;;;;;5046426;28;19913;-69
2023/05/17 04:08:05;;;;;;;;;;;11.20;89.50;;;;;;5028457;28;19996;-69
2023/05/17 04:10:31;;;;;;;;;;;11.20;89.50;;;;;;5046329;28;19996;-70
2023/05/17 04:12:56;;;;;;;;;;;11.20;89.50;;;;;;5046076;28;19973;-70
2023/05/17 04:15:22;;;;;;;;;;;11.30;89.70;;;;;;5046336;28;19919;-69
2023/05/17 04:17:47;;;;;;;;;;;11.30;89.60;;;;;;5027721;28;19920;-70
2023/05/17 04:20:13;;;;;;;;;;;11.30;89.70;;;;;;5045619;28;19909;-70
2023/05/17 04:22:38;;;;;;;;;;;11.30;90.10;;;;;;5045998;28;19925;-69
2023/05/17 04:25:04;;;;;;;;;;;11.30;89.70;;;;;;5046045;28;19912;-69
2023/05/17 04:27:30;;;;;;;;;;;11.30;89.90;;;;;;5045788;28;19919;-69
2023/05/17 04:29:56;;;;;;;;;;;11.30;89.70;;;;;;5046005;28;20416;-70
2023/05/17 04:32:22;;;;;;;;;;;11.30;89.80;;;;;;5045764;28;20403;-70
2023/05/17 04:34:48;;;;;;;;;;;11.30;89.90;;;;;;5046185;28;19944;-70
2023/05/17 04:37:15;;;;;;;;;;;11.30;89.80;;;;;;5046088;28;19948;-70
2023/05/17 04:39:40;;;;;;;;;;;11.30;89.90;;;;;;5027847;28;19913;-70
2023/05/17 04:42:06;;;;;;;;;;;11.30;89.90;;;;;;5027241;28;19913;-70
2023/05/17 04:44:31;;;;;;;;;;;11.30;90.00;;;;;;5045766;28;20377;-70
2023/05/17 04:46:57;;;;;;;;;;;11.30;90.00;;;;;;5045766;28;19919;-70
2023/05/17 04:49:23;;;;;;;;;;;11.30;89.90;;;;;;5037091;28;20438;-70
2023/05/17 04:51:49;;;;;;;;;;;11.30;89.80;;;;;;5028842;28;20012;-70
2023/05/17 04:54:14;;;;;;;;;;;11.30;90.00;;;;;;5028121;28;20044;-70
2023/05/17 04:56:40;;;;;;;;;;;11.30;90.00;;;;;;5045325;28;19916;-70
2023/05/17 04:59:06;;;;;;;;;;;11.30;90.00;;;;;;5045467;28;20425;-70
2023/05/17 05:01:33;;;;;;;;;;;11.30;90.00;;;;;;5045841;28;20331;-70
2023/05/17 05:03:59;;;;;;;;;;;11.30;90.10;;;;;;5044723;28;19928;-70
2023/05/17 05:06:25;;;;;;;;;;;11.30;90.10;;;;;;5027870;28;19916;-70
2023/05/17 05:08:51;;;;;;;;;;;11.30;90.10;;;;;;5045766;28;19920;-70
2023/05/17 05:11:16;;;;;;;;;;;11.30;90.10;;;;;;5045783;28;20365;-70
2023/05/17 05:13:42;;;;;;;;;;;11.30;90.20;;;;;;5044958;28;19965;-70
2023/05/17 05:16:07;;;;;;;;;;;11.30;90.10;;;;;;5045501;28;19913;-69
2023/05/17 05:18:33;;;;;;;;;;;11.30;90.10;;;;;;5025688;28;19995;-70
2023/05/17 05:20:59;;;;;;;;;;;11.30;90.20;;;;;;5025524;28;19924;-70
2023/05/17 05:23:24;;;;;;;;;;;11.40;90.10;;;;;;5025348;28;19924;-69
2023/05/17 05:25:50;;;;;;;;;;;11.40;90.10;;;;;;5025865;28;19978;-69
2023/05/17 05:28:15;;;;;;;;;;;11.40;90.00;;;;;;5045281;28;20086;-69
2023/05/17 05:30:41;;;;;;;;;;;11.40;90.00;;;;;;5045007;28;19935;-69
2023/05/17 05:33:06;;;;;;;;;;;11.40;90.10;;;;;;5047721;28;19913;-69
2023/05/17 05:35:32;;;;;;;;;;;11.40;90.10;;;;;;5048612;28;19913;-69
2023/05/17 05:37:57;;;;;;;;;;;11.40;90.00;;;;;;5048772;28;19912;-70
2023/05/17 05:40:23;;;;;;;;;;;11.40;90.10;;;;;;5048767;28;19979;-70
2023/05/17 05:42:49;;;;;;;;;;;11.40;90.10;;;;;;5048304;28;20335;-70
2023/05/17 05:45:14;;;;;;;;;;;11.40;90.10;;;;;;5048499;28;20016;-69
2023/05/17 05:47:40;;;;;;;;;;;11.40;90.00;;;;;;5048417;28;20001;-69
2023/05/17 05:50:06;;;;;;;;;;;11.40;90.10;;;;;;5033983;28;19936;-70
2023/05/17 05:52:31;;;;;;;;;;;11.40;90.10;;;;;;5028078;28;19919;-70
2023/05/17 05:54:57;;;;;;;;;;;11.40;90.10;;;;;;5025501;28;19913;-70
2023/05/17 05:57:22;;;;;;;;;;;11.40;90.10;;;;;;5048216;28;19909;-70
2023/05/17 05:59:48;;;;;;;;;;;11.40;90.10;;;;;;5048212;28;20380;-69
2023/05/17 06:02:13;;;;;;;;;;;11.40;90.00;;;;;;5047772;28;19916;-70
2023/05/17 06:04:39;;;;;;;;;;;11.40;90.10;;;;;;5048271;28;19917;-69
2023/05/17 06:07:04;;;;;;;;;;;11.40;90.00;;;;;;5048267;28;19935;-69
2023/05/17 06:09:30;;;;;;;;;;;11.40;90.10;;;;;;5048138;28;19944;-69
2023/05/17 06:11:55;;;;;;;;;;;11.40;90.00;;;;;;5048082;28;19916;-70
2023/05/17 06:14:21;;;;;;;;;;;11.40;89.80;;;;;;5048236;28;19916;-69
2023/05/17 06:16:47;;;;;;;;;;;11.40;89.90;;;;;;5048221;28;19913;-70
2023/05/17 06:19:13;;;;;;;;;;;11.40;89.90;;;;;;5040714;28;19909;-70
2023/05/17 06:21:38;;;;;;;;;;;11.40;89.90;;;;;;5028133;28;19932;-70
2023/05/17 06:24:04;;;;;;;;;;;11.50;89.90;;;;;;5027719;28;19924;-70
2023/05/17 06:26:30;;;;;;;;;;;11.50;89.70;;;;;;5033807;28;19923;-70
2023/05/17 06:28:55;;;;;;;;;;;11.40;89.60;;;;;;5034321;28;20455;-70
2023/05/17 06:31:21;;;;;;;;;;;11.50;89.80;;;;;;5030142;28;19913;-70
2023/05/17 06:33:46;;;;;;;;;;;11.50;89.70;;;;;;5047409;28;19913;-70
2023/05/17 06:36:12;;;;;;;;;;;11.50;89.80;;;;;;5047838;28;20558;-70
2023/05/17 06:38:37;;;;;;;;;;;11.50;89.60;;;;;;5047501;28;19909;-70
2023/05/17 06:41:03;;;;;;;;;;;11.60;89.60;;;;;;5047730;28;20281;-69
2023/05/17 06:43:28;;;;;;;;;;;11.60;89.50;;;;;;5046766;28;20020;-69
2023/05/17 06:45:54;;;;;;;;;;;11.60;89.50;;;;;;5029723;28;19945;-69
2023/05/17 06:48:19;;;;;;;;;;;11.60;89.30;;;;;;5047554;28;19909;-70
2023/05/17 06:50:45;;;;;;;;;;;11.60;89.30;;;;;;5027572;28;19913;-70
2023/05/17 06:53:10;;;;;;;;;;;11.70;89.30;;;;;;5042335;28;19913;-70
2023/05/17 06:55:36;;;;;;;;;;;11.70;89.20;;;;;;5046280;28;20589;-69
2023/05/17 06:58:02;;;;;;;;;;;11.80;89.10;;;;;;5029428;28;19913;-69
2023/05/17 07:00:27;;;;;;;;;;;11.80;88.90;;;;;;5046949;28;20000;-69
2023/05/17 07:02:53;;;;;;;;;;;11.90;88.80;;;;;;5047133;28;20307;-70
2023/05/17 07:05:20;;;;;;;;;;;11.90;88.60;;;;;;5047274;28;20242;-70
2023/05/17 07:07:45;;;;;;;;;;;11.90;88.60;;;;;;5047350;28;19909;-70
2023/05/17 07:10:11;;;;;;;;;;;12.00;88.50;;;;;;5047332;28;19913;-70
2023/05/17 07:12:36;;;;;;;;;;;12.00;88.40;;;;;;5028115;28;20285;-70
2023/05/17 07:15:02;;;;;;;;;;;12.00;88.40;;;;;;5046283;28;19977;-69
2023/05/17 07:17:28;;;;;;;;;;;12.10;89.00;;;;;;5061419;28;19909;-70
2023/05/17 07:19:53;;;;;;;;;;;12.20;88.10;;;;;;5033165;28;19913;-70
2023/05/17 07:22:19;;;;;;;;;;;12.20;88.10;;;;;;5026006;28;19925;-69
2023/05/17 07:24:45;;;;;;;;;;;12.20;88.00;;;;;;5026452;28;19913;-70
2023/05/17 07:27:11;;;;;;;;;;;12.20;88.00;;;;;;5037322;28;19920;-70
2023/05/17 07:29:36;;;;;;;;;;;12.20;87.90;;;;;;5045921;28;19912;-70
2023/05/17 07:32:02;;;;;;;;;;;12.30;87.80;;;;;;5045813;28;19913;-70
2023/05/17 07:34:29;;;;;;;;;;;12.30;87.70;;;;;;5045934;28;19944;-70
2023/05/17 07:36:54;;;;;;;;;;;12.30;87.60;;;;;;5045839;28;20019;-70
2023/05/17 07:39:20;;;;;;;;;;;12.40;87.50;;;;;;5045707;28;19995;-70
2023/05/17 07:41:45;;;;;;;;;;;12.40;87.40;;;;;;5028401;28;19936;-70
2023/05/17 07:44:11;;;;;;;;;;;12.40;87.30;;;;;;5046330;28;19963;-70
2023/05/17 07:46:36;;;;;;;;;;;12.40;87.40;;;;;;5046629;28;20292;-70
2023/05/17 07:49:02;;;;;;;;;;;12.40;87.10;;;;;;5040769;28;19913;-70
2023/05/17 07:51:27;;;;;;;;;;;12.40;87.20;;;;;;5026674;28;19914;-70
2023/05/17 07:53:53;;;;;;;;;;;12.40;87.10;;;;;;5032558;28;19913;-70
2023/05/17 07:56:18;;;;;;;;;;;12.40;87.10;;;;;;5045889;28;19933;-70
2023/05/17 07:58:44;;;;;;;;;;;12.40;87.10;;;;;;5045895;28;19913;-70
2023/05/17 08:01:09;;;;;;;;;;;12.40;87.20;;;;;;5041415;28;19909;-70
2023/05/17 08:03:35;;;;;;;;;;;12.40;87.10;;;;;;5016142;28;19956;-70
2023/05/17 08:06:01;;;;;;;;;;;12.40;87.00;;;;;;5045789;28;19966;-70
2023/05/17 08:08:26;;;;;;;;;;;12.50;87.00;;;;;;5045706;28;19952;-70
2023/05/17 08:10:52;;;;;;;;;;;12.50;86.80;;;;;;5046036;28;19913;-70
2023/05/17 08:13:17;;;;;;;;;;;12.50;86.60;;;;;;5045851;28;20381;-70
2023/05/17 08:15:43;;;;;;;;;;;12.60;86.60;;;;;;5046112;28;20238;-70
2023/05/17 08:18:08;;;;;;;;;;;12.60;86.40;;;;;;5046048;28;19938;-70
2023/05/17 08:20:34;;;;;;;;;;;12.60;86.20;;;;;;5045636;28;19916;-70
2023/05/17 08:23:00;;;;;;;;;;;12.70;86.20;;;;;;5045686;28;19916;-70
2023/05/17 08:25:25;;;;;;;;;;;12.70;86.00;;;;;;5027923;28;19913;-70
2023/05/17 08:27:51;;;;;;;;;;;12.70;85.60;;;;;;5045684;28;19916;-70
2023/05/17 08:30:16;;;;;;;;;;;12.80;85.60;;;;;;5045750;28;19917;-69
2023/05/17 08:32:43;;;;;;;;;;;12.80;85.40;;;;;;5045250;28;19959;-70
2023/05/17 08:35:09;;;;;;;;;;;12.80;85.20;;;;;;5045733;28;20007;-70
2023/05/17 08:37:35;;;;;;;;;;;12.90;85.00;;;;;;5027941;28;20031;-70
2023/05/17 08:40:00;;;;;;;;;;;12.90;84.90;;;;;;5045354;28;19912;-71
2023/05/17 08:42:26;;;;;;;;;;;13.00;84.70;;;;;;5044958;28;19917;-70
2023/05/17 08:44:52;;;;;;;;;;;13.00;84.50;;;;;;5043792;27;19944;-70
2023/05/17 08:47:25;;;;;;;;;;;13.00;84.40;;;;;;5045051;28;19939;-70
2023/05/17 08:49:54;;;;;;;;;;;13.10;85.00;;;;;;5027760;28;19909;-70
2023/05/17 08:52:20;;;;;;;;;;;13.10;84.30;;;;;;5045281;28;19919;-70
2023/05/17 08:54:47;;;;;;;;;;;13.10;84.30;;;;;;5044383;28;19919;-70
2023/05/17 08:57:15;;;;;;;;;;;13.20;84.20;;;;;;5045044;28;19917;-70
2023/05/17 08:59:41;;;;;;;;;;;13.20;83.80;;;;;;5043524;28;20040;-70
2023/05/17 09:02:07;;;;;;;;;;;13.30;83.70;;;;;;5045060;28;20385;-70
2023/05/17 09:04:32;;;;;;;;;;;13.40;83.30;;;;;;5045256;28;19912;-70
2023/05/17 09:06:58;;;;;;;;;;;13.40;83.00;;;;;;5045248;28;19996;-70
2023/05/17 09:09:24;;;;;;;;;;;13.40;83.00;;;;;;5027718;28;19913;-70
2023/05/17 09:11:50;;;;;;;;;;;13.40;83.00;;;;;;5045104;28;19913;-70
2023/05/17 09:14:18;;;;;;;;;;;13.50;83.10;;;;;;5044954;28;19934;-70
2023/05/17 09:16:44;;;;;;;;;;;13.40;83.30;;;;;;5045338;28;19932;-70
2023/05/17 09:19:13;;;;;;;;;;;13.40;83.30;;;;;;5045201;28;19935;-70
2023/05/17 09:21:39;;;;;;;;;;;13.30;83.20;;;;;;5045391;28;20027;-70
2023/05/17 09:24:05;;;;;;;;;;;13.30;83.40;;;;;;5045250;28;20339;-70
2023/05/17 09:26:38;;;;;;;;;;;13.40;83.40;;;;;;5045460;28;20469;-70
2023/05/17 09:29:07;;;;;;;;;;;13.50;83.30;;;;;;5044916;28;19909;-70
2023/05/17 09:31:33;;;;;;;;;;;13.60;83.10;;;;;;5045334;28;20292;-70
2023/05/17 09:33:58;;;;;;;;;;;13.60;82.90;;;;;;5044448;28;20759;-70
2023/05/17 09:36:24;;;;;;;;;;;13.70;82.90;;;;;;5027220;28;20011;-70
2023/05/17 09:39:00;;;;;;;;;;;13.80;82.60;;;;;;5045136;28;19919;-70
2023/05/17 09:41:26;;;;;;;;;;;13.80;82.40;;;;;;5044951;28;19923;-70
2023/05/17 09:43:52;;;;;;;;;;;13.90;82.10;;;;;;5044485;28;19917;-70
2023/05/17 09:46:20;;;;;;;;;;;14.00;81.80;;;;;;5044949;28;20013;-70
2023/05/17 09:48:51;;;;;;;;;;;14.00;81.40;;;;;;5041279;28;20537;-70
2023/05/17 09:51:17;;;;;;;;;;;14.00;81.30;;;;;;5024961;28;19924;-70
2023/05/17 09:53:42;;;;;;;;;;;14.10;81.20;;;;;;5029507;28;19909;-70
2023/05/17 09:56:08;;;;;;;;;;;14.20;81.20;;;;;;5044522;28;19917;-70
2023/05/17 09:58:37;;;;;;;;;;;14.20;81.10;;;;;;5044758;28;19927;-70
2023/05/17 10:01:04;;;;;;;;;;;14.10;81.30;;;;;;5044659;28;20015;-70
2023/05/17 10:03:31;;;;;;;;;;;14.10;81.50;;;;;;5044242;28;19924;-70
2023/05/17 10:05:57;;;;;;;;;;;14.20;81.40;;;;;;5044672;28;19924;-71
2023/05/17 10:08:26;;;;;;;;;;;14.30;81.30;;;;;;5044689;28;19912;-70
2023/05/17 10:10:57;;;;;;;;;;;14.40;81.20;;;;;;5044433;28;20630;-70
2023/05/17 10:13:25;;;;;;;;;;;14.30;81.20;;;;;;5044295;28;20319;-71
2023/05/17 10:15:52;;;;;;;;;;;14.30;81.00;;;;;;5044426;28;20014;-70
2023/05/17 10:18:18;;;;;;;;;;;14.40;81.20;;;;;;5046101;28;19913;-70
2023/05/17 10:20:44;;;;;;;;;;;14.30;81.40;;;;;;5028379;28;20255;-70
2023/05/17 10:23:10;;;;;;;;;;;14.30;81.50;;;;;;5027650;28;19922;-70
2023/05/17 10:25:36;;;;;;;;;;;14.40;81.20;;;;;;5028102;28;19962;-70
2023/05/17 10:28:05;;;;;;;;;;;14.50;81.10;;;;;;5046599;28;19913;-71
2023/05/17 10:30:30;;;;;;;;;;;14.60;81.10;;;;;;5047524;28;20334;-70
2023/05/17 10:32:57;;;;;;;;;;;14.70;80.60;;;;;;5047455;28;19913;-70
2023/05/17 10:35:23;;;;;;;;;;;14.80;80.60;;;;;;5047916;28;19916;-70
2023/05/17 10:37:48;;;;;;;;;;;14.80;80.20;;;;;;5047916;28;19913;-70
2023/05/17 10:40:16;;;;;;;;;;;14.90;80.40;;;;;;5047604;28;19913;-70
2023/05/17 10:42:43;;;;;;;;;;;15.00;80.20;;;;;;5047106;28;20435;-71
2023/05/17 10:45:10;;;;;;;;;;;15.10;80.20;;;;;;5047484;28;20085;-71
2023/05/17 10:47:40;;;;;;;;;;;15.10;79.60;;;;;;5045676;28;19913;-70
2023/05/17 10:50:10;;;;;;;;;;;15.30;79.80;;;;;;5039496;27;20507;-71
2023/05/17 10:52:37;;;;;;;;;;;15.40;79.60;;;;;;5046612;27;19913;-71
2023/05/17 10:55:03;;;;;;;;;;;15.40;79.90;;;;;;5045241;28;20307;-71
2023/05/17 10:57:36;;;;;;;;;;;15.30;78.80;;;;;;5072886;27;19915;-71
2023/05/17 11:00:05;;;;;;;;;;;15.40;79.80;;;;;;5042459;27;19921;-71
2023/05/17 11:02:31;;;;;;;;;;;15.50;80.00;;;;;;5045186;27;19917;-71
2023/05/17 11:04:57;;;;;;;;;;;15.60;79.60;;;;;;5030691;27;19967;-72
2023/05/17 11:07:25;;;;;;;;;;;15.70;79.80;;;;;;5044745;27;19954;-71
2023/05/17 11:10:05;;;;;;;;;;;15.70;79.50;;;;;;5046004;28;19967;-71
2023/05/17 11:12:36;;;;;;;;;;;15.70;79.80;;;;;;5046188;28;19913;-71
2023/05/17 11:15:06;;;;;;;;;;;15.60;80.10;;;;;;5047415;28;19913;-71
2023/05/17 11:17:34;;;;;;;;;;;15.70;79.90;;;;;;5047061;28;19962;-71
2023/05/17 11:20:01;;;;;;;;;;;15.80;80.30;;;;;;5047063;28;20453;-71
2023/05/17 11:22:27;;;;;;;;;;;15.90;80.30;;;;;;5046917;28;20311;-72
2023/05/17 11:24:55;;;;;;;;;;;16.00;79.70;;;;;;5047100;28;19976;-71
2023/05/17 11:27:26;;;;;;;;;;;16.00;79.40;;;;;;5046813;28;20365;-71
2023/05/17 11:29:55;;;;;;;;;;;16.00;79.60;;;;;;5045543;28;19997;-72
2023/05/17 11:32:28;;;;;;;;;;;16.10;79.20;;;;;;5046549;28;19986;-71
2023/05/17 11:34:53;;;;;;;;;;;16.20;79.00;;;;;;5046875;28;19966;-71
2023/05/17 11:37:26;;;;;;;;;;;16.30;79.20;;;;;;5046712;28;19917;-71
2023/05/17 11:40:02;;;;;;;;;;;16.40;78.60;;;;;;5046837;28;20712;-72
2023/05/17 11:42:28;;;;;;;;;;;16.50;78.30;;;;;;5046215;28;19924;-72
2023/05/17 11:44:55;;;;;;;;;;;16.40;78.20;;;;;;5046965;28;19913;-72
2023/05/17 11:47:21;;;;;;;;;;;16.50;78.60;;;;;;5046521;28;19927;-72
2023/05/17 11:49:50;;;;;;;;;;;16.60;79.00;;;;;;5034884;28;19917;-72
2023/05/17 11:52:15;;;;;;;;;;;16.70;79.10;;;;;;5025576;28;20286;-71
2023/05/17 11:54:41;;;;;;;;;;;16.80;78.60;;;;;;5037189;28;19916;-71
2023/05/17 11:57:08;;;;;;;;;;;16.90;78.60;;;;;;5046411;28;19912;-72
2023/05/17 11:59:39;;;;;;;;;;;16.90;78.70;;;;;;5046285;28;20324;-71
2023/05/17 12:02:05;;;;;;;;;;;16.90;78.10;;;;;;5046329;28;20000;-72
2023/05/17 12:04:33;;;;;;;;;;;16.90;78.50;;;;;;5046466;28;20441;-71
2023/05/17 12:07:00;;;;;;;;;;;16.90;77.90;;;;;;5046238;28;19993;-71
2023/05/17 12:09:26;;;;;;;;;;;17.00;78.60;;;;;;5028620;28;19920;-71
2023/05/17 12:11:52;;;;;;;;;;;17.00;78.80;;;;;;5028212;28;20621;-71
2023/05/17 12:14:19;;;;;;;;;;;17.10;78.40;;;;;;5046248;28;19908;-71
2023/05/17 12:16:47;;;;;;;;;;;17.30;78.40;;;;;;5046483;28;19936;-71
2023/05/17 12:19:17;;;;;;;;;;;17.30;78.60;;;;;;5039238;28;20346;-72
2023/05/17 12:21:43;;;;;;;;;;;17.30;78.10;;;;;;5026089;28;19921;-72
2023/05/17 12:24:08;;;;;;;;;;;17.20;78.20;;;;;;5026104;28;20745;-72
2023/05/17 12:26:41;;;;;;;;;;;17.20;78.00;;;;;;5032545;28;19969;-72
2023/05/17 12:29:06;;;;;;;;;;;17.30;78.30;;;;;;5028171;28;20350;-71
2023/05/17 12:31:35;;;;;;;;;;;17.40;78.60;;;;;;5028170;28;20007;-72
2023/05/17 12:34:03;;;;;;;;;;;17.50;78.50;;;;;;5045390;28;19917;-71
2023/05/17 12:36:32;;;;;;;;;;;17.60;78.30;;;;;;5044198;28;19920;-71
2023/05/17 12:38:58;;;;;;;;;;;17.70;78.20;;;;;;5045576;28;19993;-71
2023/05/17 12:41:25;;;;;;;;;;;17.70;78.60;;;;;;5060411;28;19962;-71
2023/05/17 12:43:50;;;;;;;;;;;17.70;77.90;;;;;;5045267;28;19924;-71
2023/05/17 12:46:20;;;;;;;;;;;17.60;77.60;;;;;;5045570;28;19913;-71
2023/05/17 12:48:46;;;;;;;;;;;17.70;76.90;;;;;;5041999;28;19913;-71
2023/05/17 12:51:11;;;;;;;;;;;17.80;77.30;;;;;;5030709;28;19989;-72
2023/05/17 12:53:38;;;;;;;;;;;17.90;77.70;;;;;;5044677;28;20044;-71
2023/05/17 12:56:04;;;;;;;;;;;17.90;77.80;;;;;;5044457;28;20491;-71
2023/05/17 12:58:30;;;;;;;;;;;18.10;77.40;;;;;;5026484;28;19912;-71
2023/05/17 13:00:59;;;;;;;;;;;18.20;76.80;;;;;;5040578;28;19940;-71
2023/05/17 13:03:25;;;;;;;;;;;18.30;76.60;;;;;;5044125;28;20329;-71
2023/05/17 13:06:00;;;;;;;;;;;18.30;75.50;;;;;;5044150;28;19912;-71
2023/05/17 13:08:26;;;;;;;;;;;18.30;76.50;;;;;;5026522;28;19912;-71
2023/05/17 13:10:51;;;;;;;;;;;18.30;75.90;;;;;;5044282;28;19913;-71
2023/05/17 13:13:18;;;;;;;;;;;18.30;75.50;;;;;;5044202;28;19935;-71
2023/05/17 13:15:45;;;;;;;;;;;18.50;75.90;;;;;;5044426;28;19916;-72
2023/05/17 13:18:12;;;;;;;;;;;18.50;75.40;;;;;;5044477;28;19913;-71
2023/05/17 13:20:37;;;;;;;;;;;18.60;75.50;;;;;;5043999;28;20293;-71
2023/05/17 13:23:04;;;;;;;;;;;18.60;75.50;;;;;;5044294;28;19917;-72
2023/05/17 13:25:30;;;;;;;;;;;18.70;75.00;;;;;;5044050;28;19917;-71
2023/05/17 13:27:56;;;;;;;;;;;18.80;75.10;;;;;;5043894;28;19961;-72
2023/05/17 13:30:21;;;;;;;;;;;18.80;74.00;;;;;;5044052;28;19912;-71
2023/05/17 13:32:46;;;;;;;;;;;18.80;73.80;;;;;;5043738;28;19912;-71
2023/05/17 13:35:12;;;;;;;;;;;18.80;74.20;;;;;;5044178;28;19913;-71
2023/05/17 13:37:38;;;;;;;;;;;18.80;73.90;;;;;;5044290;28;20410;-72
2023/05/17 13:40:04;;;;;;;;;;;18.80;74.60;;;;;;5044441;28;19909;-72
2023/05/17 13:42:30;;;;;;;;;;;18.80;74.10;;;;;;5043614;28;20456;-72
2023/05/17 13:44:56;;;;;;;;;;;18.80;74.50;;;;;;5044086;28;19913;-72
2023/05/17 13:47:21;;;;;;;;;;;18.70;75.10;;;;;;5044084;28;19993;-72
2023/05/17 13:49:47;;;;;;;;;;;18.70;74.90;;;;;;5032121;28;19909;-71
2023/05/17 13:52:13;;;;;;;;;;;18.80;75.40;;;;;;5027241;28;19932;-71
2023/05/17 13:54:39;;;;;;;;;;;18.80;75.60;;;;;;5046988;28;20404;-71
2023/05/17 13:57:05;;;;;;;;;;;18.90;75.40;;;;;;5047157;28;20289;-71
2023/05/17 13:59:31;;;;;;;;;;;19.00;75.60;;;;;;5047218;28;19909;-72
2023/05/17 14:01:57;;;;;;;;;;;19.10;75.30;;;;;;5039932;28;20425;-71
2023/05/17 14:04:22;;;;;;;;;;;19.10;74.40;;;;;;5034432;28;19973;-72
2023/05/17 14:06:48;;;;;;;;;;;19.00;75.00;;;;;;5047020;28;20355;-71
2023/05/17 14:09:13;;;;;;;;;;;19.00;74.30;;;;;;5029371;28;20656;-71
2023/05/17 14:11:39;;;;;;;;;;;18.90;74.30;;;;;;5047032;28;19913;-71